Terminal Aerodrome Forecast
Issued by NWS North Platte, NE

Home | Current Version | Previous Version | Text Only | Print | Product List | Glossary On
Versions: 1 2 3 4 5 6 7 8 9 10 11 12
742
FTUS43 KLBF 281722
TAFLBF
TAF
KLBF 281722Z 2818/0118 32007KT P6SM SCT110 OVC150
     FM011300 30012G20KT P6SM FEW200
     FM011500 30015G25KT P6SM FEW250=

USA.gov is the U.S. government's official web portal to all federal, state and local government web resources and services.